sensor_id;sensor_type;location;lat;lon;timestamp;P1;durP1;ratioP1;P2;durP2;ratioP2
41546;SDS011;27271;45.412;10.852;2022-10-23T00:01:49;12.32;;;5.47;;
41546;SDS011;27271;45.412;10.852;2022-10-23T00:05:12;12.25;;;5.35;;
41546;SDS011;27271;45.412;10.852;2022-10-23T00:08:37;12.32;;;5.50;;
41546;SDS011;27271;45.412;10.852;2022-10-23T00:12:00;11.68;;;5.60;;
41546;SDS011;27271;45.412;10.852;2022-10-23T00:15:22;16.90;;;6.40;;
41546;SDS011;27271;45.412;10.852;2022-10-23T00:18:47;12.55;;;6.32;;
41546;SDS011;27271;45.412;10.852;2022-10-23T00:22:09;11.65;;;5.55;;
41546;SDS011;27271;45.412;10.852;2022-10-23T00:25:31;11.35;;;5.80;;
41546;SDS011;27271;45.412;10.852;2022-10-23T00:28:54;13.15;;;6.18;;
41546;SDS011;27271;45.412;10.852;2022-10-23T00:32:16;10.98;;;5.85;;
41546;SDS011;27271;45.412;10.852;2022-10-23T00:35:38;10.43;;;5.57;;
41546;SDS011;27271;45.412;10.852;2022-10-23T00:39:01;10.77;;;6.35;;
41546;SDS011;27271;45.412;10.852;2022-10-23T00:42:24;12.52;;;6.03;;
41546;SDS011;27271;45.412;10.852;2022-10-23T00:45:46;8.20;;;5.25;;
41546;SDS011;27271;45.412;10.852;2022-10-23T00:49:09;13.13;;;5.93;;
41546;SDS011;27271;45.412;10.852;2022-10-23T00:52:31;7.72;;;5.10;;
41546;SDS011;27271;45.412;10.852;2022-10-23T00:55:54;12.05;;;5.85;;
41546;SDS011;27271;45.412;10.852;2022-10-23T00:59:18;9.35;;;5.30;;
41546;SDS011;27271;45.412;10.852;2022-10-23T01:02:40;8.55;;;4.60;;
41546;SDS011;27271;45.412;10.852;2022-10-23T01:13:23;16.63;;;6.07;;
41546;SDS011;27271;45.412;10.852;2022-10-23T01:20:45;8.60;;;4.88;;
41546;SDS011;27271;45.412;10.852;2022-10-23T01:24:20;8.10;;;4.82;;
41546;SDS011;27271;45.412;10.852;2022-10-23T01:27:57;9.88;;;4.78;;
41546;SDS011;27271;45.412;10.852;2022-10-23T01:31:31;7.97;;;4.72;;
41546;SDS011;27271;45.412;10.852;2022-10-23T01:35:02;7.13;;;4.88;;
41546;SDS011;27271;45.412;10.852;2022-10-23T01:38:36;8.20;;;4.68;;
41546;SDS011;27271;45.412;10.852;2022-10-23T01:42:16;15.63;;;4.72;;
41546;SDS011;27271;45.412;10.852;2022-10-23T01:45:43;10.05;;;5.15;;
41546;SDS011;27271;45.412;10.852;2022-10-23T01:49:13;9.00;;;4.63;;
41546;SDS011;27271;45.412;10.852;2022-10-23T01:52:38;7.88;;;4.15;;
41546;SDS011;27271;45.412;10.852;2022-10-23T01:56:01;9.77;;;4.20;;
41546;SDS011;27271;45.412;10.852;2022-10-23T01:59:28;7.20;;;3.83;;
41546;SDS011;27271;45.412;10.852;2022-10-23T02:02:56;11.23;;;4.50;;
41546;SDS011;27271;45.412;10.852;2022-10-23T02:06:25;11.50;;;4.40;;
41546;SDS011;27271;45.412;10.852;2022-10-23T02:09:47;8.18;;;4.03;;
41546;SDS011;27271;45.412;10.852;2022-10-23T02:13:18;7.63;;;3.53;;
41546;SDS011;27271;45.412;10.852;2022-10-23T02:16:54;7.78;;;4.38;;
41546;SDS011;27271;45.412;10.852;2022-10-23T02:21:30;7.25;;;4.10;;
41546;SDS011;27271;45.412;10.852;2022-10-23T02:24:27;6.75;;;4.47;;
41546;SDS011;27271;45.412;10.852;2022-10-23T02:27:54;6.65;;;3.85;;
41546;SDS011;27271;45.412;10.852;2022-10-23T02:31:28;7.35;;;3.90;;
41546;SDS011;27271;45.412;10.852;2022-10-23T02:34:51;8.20;;;4.40;;
41546;SDS011;27271;45.412;10.852;2022-10-23T02:38:30;9.32;;;4.32;;
41546;SDS011;27271;45.412;10.852;2022-10-23T02:45:53;8.55;;;4.25;;
41546;SDS011;27271;45.412;10.852;2022-10-23T02:49:27;9.30;;;4.20;;
41546;SDS011;27271;45.412;10.852;2022-10-23T02:57:08;6.57;;;3.97;;
41546;SDS011;27271;45.412;10.852;2022-10-23T03:00:45;8.00;;;3.78;;
41546;SDS011;27271;45.412;10.852;2022-10-23T03:04:13;6.32;;;3.67;;
41546;SDS011;27271;45.412;10.852;2022-10-23T03:07:38;8.85;;;3.65;;
41546;SDS011;27271;45.412;10.852;2022-10-23T03:11:04;6.25;;;3.95;;
41546;SDS011;27271;45.412;10.852;2022-10-23T03:14:26;9.27;;;3.95;;
41546;SDS011;27271;45.412;10.852;2022-10-23T03:17:47;7.72;;;4.40;;
41546;SDS011;27271;45.412;10.852;2022-10-23T03:21:10;10.05;;;4.00;;
41546;SDS011;27271;45.412;10.852;2022-10-23T03:24:32;7.93;;;4.15;;
41546;SDS011;27271;45.412;10.852;2022-10-23T03:27:54;9.63;;;4.45;;
41546;SDS011;27271;45.412;10.852;2022-10-23T03:31:16;8.57;;;4.07;;
41546;SDS011;27271;45.412;10.852;2022-10-23T03:34:39;8.57;;;3.95;;
41546;SDS011;27271;45.412;10.852;2022-10-23T03:38:05;6.03;;;3.67;;
41546;SDS011;27271;45.412;10.852;2022-10-23T03:41:28;6.30;;;3.63;;
41546;SDS011;27271;45.412;10.852;2022-10-23T03:44:50;6.43;;;4.07;;
41546;SDS011;27271;45.412;10.852;2022-10-23T03:48:12;7.20;;;3.83;;
41546;SDS011;27271;45.412;10.852;2022-10-23T03:51:35;5.22;;;3.17;;
41546;SDS011;27271;45.412;10.852;2022-10-23T03:54:57;9.85;;;3.40;;
41546;SDS011;27271;45.412;10.852;2022-10-23T03:58:19;6.80;;;3.55;;
41546;SDS011;27271;45.412;10.852;2022-10-23T04:01:42;11.18;;;3.63;;
41546;SDS011;27271;45.412;10.852;2022-10-23T04:05:05;5.72;;;3.33;;
41546;SDS011;27271;45.412;10.852;2022-10-23T04:08:27;9.30;;;3.42;;
41546;SDS011;27271;45.412;10.852;2022-10-23T04:11:49;5.80;;;3.58;;
41546;SDS011;27271;45.412;10.852;2022-10-23T04:15:11;7.95;;;3.10;;
41546;SDS011;27271;45.412;10.852;2022-10-23T04:18:38;5.18;;;3.22;;
41546;SDS011;27271;45.412;10.852;2022-10-23T04:22:03;5.13;;;2.95;;
41546;SDS011;27271;45.412;10.852;2022-10-23T04:25:26;5.05;;;2.90;;
41546;SDS011;27271;45.412;10.852;2022-10-23T04:28:48;4.95;;;3.33;;
41546;SDS011;27271;45.412;10.852;2022-10-23T04:32:10;6.90;;;3.10;;
41546;SDS011;27271;45.412;10.852;2022-10-23T04:35:33;5.95;;;3.20;;
41546;SDS011;27271;45.412;10.852;2022-10-23T04:38:55;4.28;;;2.80;;
41546;SDS011;27271;45.412;10.852;2022-10-23T04:42:17;7.90;;;3.58;;
41546;SDS011;27271;45.412;10.852;2022-10-23T04:45:41;4.43;;;3.00;;
41546;SDS011;27271;45.412;10.852;2022-10-23T04:49:03;6.97;;;3.28;;
41546;SDS011;27271;45.412;10.852;2022-10-23T04:52:43;4.57;;;3.03;;
41546;SDS011;27271;45.412;10.852;2022-10-23T04:56:35;5.15;;;3.00;;
41546;SDS011;27271;45.412;10.852;2022-10-23T05:00:02;8.27;;;3.50;;
41546;SDS011;27271;45.412;10.852;2022-10-23T05:03:33;6.18;;;2.83;;
41546;SDS011;27271;45.412;10.852;2022-10-23T05:06:56;5.85;;;3.10;;
41546;SDS011;27271;45.412;10.852;2022-10-23T05:10:37;6.88;;;2.67;;
41546;SDS011;27271;45.412;10.852;2022-10-23T05:14:08;5.93;;;2.60;;
41546;SDS011;27271;45.412;10.852;2022-10-23T05:17:36;3.88;;;2.55;;
41546;SDS011;27271;45.412;10.852;2022-10-23T05:21:13;4.82;;;2.40;;
41546;SDS011;27271;45.412;10.852;2022-10-23T05:24:43;7.32;;;2.83;;
41546;SDS011;27271;45.412;10.852;2022-10-23T05:28:14;6.30;;;3.03;;
41546;SDS011;27271;45.412;10.852;2022-10-23T05:31:36;7.32;;;2.90;;
41546;SDS011;27271;45.412;10.852;2022-10-23T05:35:05;7.82;;;3.47;;
41546;SDS011;27271;45.412;10.852;2022-10-23T05:38:31;4.82;;;3.20;;
41546;SDS011;27271;45.412;10.852;2022-10-23T05:42:03;4.95;;;3.15;;
41546;SDS011;27271;45.412;10.852;2022-10-23T05:45:25;7.13;;;3.38;;
41546;SDS011;27271;45.412;10.852;2022-10-23T05:49:10;6.97;;;3.30;;
41546;SDS011;27271;45.412;10.852;2022-10-23T05:52:46;6.03;;;3.00;;
41546;SDS011;27271;45.412;10.852;2022-10-23T05:56:38;9.13;;;3.67;;
41546;SDS011;27271;45.412;10.852;2022-10-23T06:00:14;5.07;;;3.28;;
41546;SDS011;27271;45.412;10.852;2022-10-23T06:03:44;7.88;;;3.22;;
41546;SDS011;27271;45.412;10.852;2022-10-23T06:07:06;6.45;;;3.38;;
41546;SDS011;27271;45.412;10.852;2022-10-23T06:10:30;5.10;;;3.50;;
41546;SDS011;27271;45.412;10.852;2022-10-23T06:13:57;5.45;;;3.53;;
41546;SDS011;27271;45.412;10.852;2022-10-23T06:17:21;5.57;;;3.25;;
41546;SDS011;27271;45.412;10.852;2022-10-23T06:20:43;8.32;;;3.63;;
41546;SDS011;27271;45.412;10.852;2022-10-23T06:24:14;8.05;;;4.95;;
41546;SDS011;27271;45.412;10.852;2022-10-23T06:27:56;8.65;;;4.72;;
41546;SDS011;27271;45.412;10.852;2022-10-23T06:31:19;7.53;;;4.60;;
41546;SDS011;27271;45.412;10.852;2022-10-23T06:34:44;8.77;;;3.85;;
41546;SDS011;27271;45.412;10.852;2022-10-23T06:38:06;9.07;;;4.40;;
41546;SDS011;27271;45.412;10.852;2022-10-23T06:41:36;7.23;;;3.67;;
41546;SDS011;27271;45.412;10.852;2022-10-23T06:45:00;9.02;;;5.05;;
41546;SDS011;27271;45.412;10.852;2022-10-23T06:49:05;10.25;;;4.90;;
41546;SDS011;27271;45.412;10.852;2022-10-23T06:52:36;7.00;;;4.38;;
41546;SDS011;27271;45.412;10.852;2022-10-23T06:56:12;7.72;;;4.65;;
41546;SDS011;27271;45.412;10.852;2022-10-23T06:59:35;10.30;;;3.75;;
41546;SDS011;27271;45.412;10.852;2022-10-23T07:02:59;6.95;;;3.35;;
41546;SDS011;27271;45.412;10.852;2022-10-23T07:06:24;3.83;;;2.72;;
41546;SDS011;27271;45.412;10.852;2022-10-23T07:09:47;5.05;;;2.85;;
41546;SDS011;27271;45.412;10.852;2022-10-23T07:13:58;3.58;;;2.90;;
41546;SDS011;27271;45.412;10.852;2022-10-23T07:17:20;5.15;;;2.50;;
41546;SDS011;27271;45.412;10.852;2022-10-23T07:20:42;6.15;;;2.30;;
41546;SDS011;27271;45.412;10.852;2022-10-23T07:24:05;6.53;;;2.60;;
41546;SDS011;27271;45.412;10.852;2022-10-23T07:27:35;8.10;;;3.05;;
41546;SDS011;27271;45.412;10.852;2022-10-23T07:31:01;4.30;;;2.15;;
41546;SDS011;27271;45.412;10.852;2022-10-23T07:34:43;3.38;;;2.10;;
41546;SDS011;27271;45.412;10.852;2022-10-23T07:38:16;2.65;;;1.75;;
41546;SDS011;27271;45.412;10.852;2022-10-23T07:44:41;4.18;;;2.30;;
41546;SDS011;27271;45.412;10.852;2022-10-23T07:48:03;3.63;;;2.03;;
41546;SDS011;27271;45.412;10.852;2022-10-23T07:51:51;3.35;;;2.25;;
41546;SDS011;27271;45.412;10.852;2022-10-23T07:55:14;2.50;;;1.98;;
41546;SDS011;27271;45.412;10.852;2022-10-23T07:58:43;4.72;;;2.35;;
41546;SDS011;27271;45.412;10.852;2022-10-23T08:02:10;3.22;;;2.20;;
41546;SDS011;27271;45.412;10.852;2022-10-23T08:05:37;3.20;;;1.95;;
41546;SDS011;27271;45.412;10.852;2022-10-23T08:08:59;3.50;;;2.38;;
41546;SDS011;27271;45.412;10.852;2022-10-23T08:12:28;2.05;;;1.70;;
41546;SDS011;27271;45.412;10.852;2022-10-23T08:15:51;1.88;;;1.75;;
41546;SDS011;27271;45.412;10.852;2022-10-23T08:19:32;3.88;;;1.88;;
41546;SDS011;27271;45.412;10.852;2022-10-23T08:22:55;2.13;;;1.25;;
41546;SDS011;27271;45.412;10.852;2022-10-23T08:26:19;3.65;;;2.22;;
41546;SDS011;27271;45.412;10.852;2022-10-23T08:29:41;3.85;;;1.95;;
41546;SDS011;27271;45.412;10.852;2022-10-23T08:33:04;3.45;;;1.80;;
41546;SDS011;27271;45.412;10.852;2022-10-23T08:36:27;4.15;;;1.98;;
41546;SDS011;27271;45.412;10.852;2022-10-23T08:39:50;2.97;;;1.80;;
41546;SDS011;27271;45.412;10.852;2022-10-23T08:43:40;2.65;;;1.73;;
41546;SDS011;27271;45.412;10.852;2022-10-23T08:47:27;3.30;;;1.75;;
41546;SDS011;27271;45.412;10.852;2022-10-23T08:51:05;2.97;;;2.20;;
41546;SDS011;27271;45.412;10.852;2022-10-23T08:58:14;4.75;;;2.30;;
41546;SDS011;27271;45.412;10.852;2022-10-23T09:05:52;3.22;;;1.95;;
41546;SDS011;27271;45.412;10.852;2022-10-23T09:09:32;3.30;;;2.00;;
41546;SDS011;27271;45.412;10.852;2022-10-23T09:23:46;3.97;;;2.30;;
41546;SDS011;27271;45.412;10.852;2022-10-23T09:27:08;4.50;;;2.63;;
41546;SDS011;27271;45.412;10.852;2022-10-23T09:30:38;4.93;;;2.58;;
41546;SDS011;27271;45.412;10.852;2022-10-23T09:34:01;5.50;;;2.83;;
41546;SDS011;27271;45.412;10.852;2022-10-23T09:37:30;6.63;;;2.35;;
41546;SDS011;27271;45.412;10.852;2022-10-23T09:40:55;5.60;;;2.83;;
41546;SDS011;27271;45.412;10.852;2022-10-23T09:48:17;4.57;;;2.67;;
41546;SDS011;27271;45.412;10.852;2022-10-23T09:51:46;4.15;;;2.67;;
41546;SDS011;27271;45.412;10.852;2022-10-23T09:55:18;3.97;;;3.08;;
41546;SDS011;27271;45.412;10.852;2022-10-23T09:58:51;5.25;;;3.13;;
41546;SDS011;27271;45.412;10.852;2022-10-23T10:02:31;8.30;;;2.97;;
41546;SDS011;27271;45.412;10.852;2022-10-23T10:06:22;5.20;;;2.95;;
41546;SDS011;27271;45.412;10.852;2022-10-23T10:09:44;5.97;;;3.33;;
41546;SDS011;27271;45.412;10.852;2022-10-23T10:17:10;4.88;;;3.35;;
41546;SDS011;27271;45.412;10.852;2022-10-23T10:20:56;14.05;;;3.90;;
41546;SDS011;27271;45.412;10.852;2022-10-23T10:24:35;5.60;;;3.10;;
41546;SDS011;27271;45.412;10.852;2022-10-23T10:32:05;6.22;;;3.47;;
41546;SDS011;27271;45.412;10.852;2022-10-23T10:54:20;5.55;;;3.13;;
41546;SDS011;27271;45.412;10.852;2022-10-23T10:58:19;8.00;;;4.00;;
41546;SDS011;27271;45.412;10.852;2022-10-23T11:02:19;6.30;;;3.63;;
41546;SDS011;27271;45.412;10.852;2022-10-23T11:05:47;5.97;;;4.03;;
41546;SDS011;27271;45.412;10.852;2022-10-23T11:09:16;13.15;;;4.15;;
41546;SDS011;27271;45.412;10.852;2022-10-23T11:16:13;8.48;;;3.70;;
41546;SDS011;27271;45.412;10.852;2022-10-23T11:34:53;11.85;;;3.80;;
41546;SDS011;27271;45.412;10.852;2022-10-23T11:38:25;11.95;;;4.28;;
41546;SDS011;27271;45.412;10.852;2022-10-23T11:41:54;6.45;;;4.05;;
41546;SDS011;27271;45.412;10.852;2022-10-23T11:48:47;6.32;;;3.55;;
41546;SDS011;27271;45.412;10.852;2022-10-23T11:52:19;13.85;;;3.67;;
41546;SDS011;27271;45.412;10.852;2022-10-23T11:59:33;6.15;;;3.95;;
41546;SDS011;27271;45.412;10.852;2022-10-23T12:02:59;6.00;;;3.58;;
41546;SDS011;27271;45.412;10.852;2022-10-23T12:06:27;7.95;;;3.50;;
41546;SDS011;27271;45.412;10.852;2022-10-23T12:10:18;9.02;;;4.13;;
41546;SDS011;27271;45.412;10.852;2022-10-23T12:13:51;9.85;;;4.07;;
41546;SDS011;27271;45.412;10.852;2022-10-23T12:17:24;8.52;;;3.67;;
41546;SDS011;27271;45.412;10.852;2022-10-23T12:20:54;9.77;;;4.27;;
41546;SDS011;27271;45.412;10.852;2022-10-23T12:28:06;7.13;;;3.72;;
41546;SDS011;27271;45.412;10.852;2022-10-23T12:31:52;6.95;;;3.60;;
41546;SDS011;27271;45.412;10.852;2022-10-23T12:39:25;7.13;;;3.83;;
41546;SDS011;27271;45.412;10.852;2022-10-23T12:42:49;8.93;;;3.70;;
41546;SDS011;27271;45.412;10.852;2022-10-23T12:50:24;5.53;;;3.90;;
41546;SDS011;27271;45.412;10.852;2022-10-23T12:53:48;9.00;;;3.63;;
41546;SDS011;27271;45.412;10.852;2022-10-23T12:57:29;7.07;;;4.07;;
41546;SDS011;27271;45.412;10.852;2022-10-23T13:07:43;7.72;;;4.32;;
41546;SDS011;27271;45.412;10.852;2022-10-23T13:11:15;8.05;;;3.65;;
41546;SDS011;27271;45.412;10.852;2022-10-23T13:14:40;9.63;;;3.90;;
41546;SDS011;27271;45.412;10.852;2022-10-23T13:18:05;9.02;;;3.30;;
41546;SDS011;27271;45.412;10.852;2022-10-23T13:21:28;8.07;;;3.92;;
41546;SDS011;27271;45.412;10.852;2022-10-23T13:24:51;8.95;;;3.92;;
41546;SDS011;27271;45.412;10.852;2022-10-23T13:28:39;7.38;;;3.15;;
41546;SDS011;27271;45.412;10.852;2022-10-23T13:32:12;10.02;;;3.67;;
41546;SDS011;27271;45.412;10.852;2022-10-23T13:35:53;10.98;;;4.60;;
41546;SDS011;27271;45.412;10.852;2022-10-23T13:39:16;21.15;;;7.20;;
41546;SDS011;27271;45.412;10.852;2022-10-23T13:42:46;12.10;;;5.30;;
41546;SDS011;27271;45.412;10.852;2022-10-23T13:53:33;8.13;;;4.18;;
41546;SDS011;27271;45.412;10.852;2022-10-23T13:56:55;7.97;;;3.65;;
41546;SDS011;27271;45.412;10.852;2022-10-23T14:00:18;11.10;;;4.50;;
41546;SDS011;27271;45.412;10.852;2022-10-23T14:03:40;6.88;;;3.92;;
41546;SDS011;27271;45.412;10.852;2022-10-23T14:07:02;10.13;;;3.80;;
41546;SDS011;27271;45.412;10.852;2022-10-23T14:10:24;21.48;;;5.60;;
41546;SDS011;27271;45.412;10.852;2022-10-23T14:13:49;7.53;;;4.20;;
41546;SDS011;27271;45.412;10.852;2022-10-23T14:17:12;9.98;;;4.13;;
41546;SDS011;27271;45.412;10.852;2022-10-23T14:20:36;6.78;;;3.92;;
41546;SDS011;27271;45.412;10.852;2022-10-23T14:23:59;7.13;;;3.90;;
41546;SDS011;27271;45.412;10.852;2022-10-23T14:27:21;7.00;;;3.72;;
41546;SDS011;27271;45.412;10.852;2022-10-23T14:30:43;7.68;;;3.50;;
41546;SDS011;27271;45.412;10.852;2022-10-23T14:34:05;6.88;;;4.38;;
41546;SDS011;27271;45.412;10.852;2022-10-23T14:37:27;6.40;;;3.63;;
41546;SDS011;27271;45.412;10.852;2022-10-23T14:40:51;6.40;;;4.13;;
41546;SDS011;27271;45.412;10.852;2022-10-23T14:44:13;10.93;;;4.43;;
41546;SDS011;27271;45.412;10.852;2022-10-23T14:47:35;9.50;;;4.68;;
41546;SDS011;27271;45.412;10.852;2022-10-23T14:50:57;8.60;;;4.22;;
41546;SDS011;27271;45.412;10.852;2022-10-23T14:54:19;9.50;;;4.50;;
41546;SDS011;27271;45.412;10.852;2022-10-23T14:57:41;7.70;;;4.07;;
41546;SDS011;27271;45.412;10.852;2022-10-23T15:01:04;10.40;;;4.55;;
41546;SDS011;27271;45.412;10.852;2022-10-23T15:04:26;7.18;;;3.70;;
41546;SDS011;27271;45.412;10.852;2022-10-23T15:07:48;8.07;;;3.53;;
41546;SDS011;27271;45.412;10.852;2022-10-23T15:11:10;6.30;;;3.20;;
41546;SDS011;27271;45.412;10.852;2022-10-23T15:14:33;4.80;;;2.50;;
41546;SDS011;27271;45.412;10.852;2022-10-23T15:17:55;5.32;;;2.45;;
41546;SDS011;27271;45.412;10.852;2022-10-23T15:21:17;5.45;;;2.60;;
41546;SDS011;27271;45.412;10.852;2022-10-23T15:24:39;3.72;;;2.63;;
41546;SDS011;27271;45.412;10.852;2022-10-23T15:28:01;5.30;;;2.33;;
41546;SDS011;27271;45.412;10.852;2022-10-23T15:34:58;3.13;;;2.25;;
41546;SDS011;27271;45.412;10.852;2022-10-23T15:38:20;5.32;;;2.58;;
41546;SDS011;27271;45.412;10.852;2022-10-23T15:41:42;4.25;;;2.67;;
41546;SDS011;27271;45.412;10.852;2022-10-23T15:45:05;4.40;;;2.72;;
41546;SDS011;27271;45.412;10.852;2022-10-23T15:48:27;4.43;;;2.20;;
41546;SDS011;27271;45.412;10.852;2022-10-23T15:51:50;4.00;;;2.25;;
41546;SDS011;27271;45.412;10.852;2022-10-23T15:55:12;5.88;;;2.55;;
41546;SDS011;27271;45.412;10.852;2022-10-23T15:58:35;5.53;;;2.30;;
41546;SDS011;27271;45.412;10.852;2022-10-23T16:01:57;5.30;;;2.80;;
41546;SDS011;27271;45.412;10.852;2022-10-23T16:05:20;3.03;;;2.15;;
41546;SDS011;27271;45.412;10.852;2022-10-23T16:08:42;3.25;;;2.30;;
41546;SDS011;27271;45.412;10.852;2022-10-23T16:12:04;6.85;;;2.40;;
41546;SDS011;27271;45.412;10.852;2022-10-23T16:15:27;4.47;;;2.70;;
41546;SDS011;27271;45.412;10.852;2022-10-23T16:18:49;5.65;;;2.08;;
41546;SDS011;27271;45.412;10.852;2022-10-23T16:22:11;11.48;;;3.20;;
41546;SDS011;27271;45.412;10.852;2022-10-23T16:25:36;4.10;;;2.63;;
41546;SDS011;27271;45.412;10.852;2022-10-23T16:29:00;4.75;;;2.40;;
41546;SDS011;27271;45.412;10.852;2022-10-23T16:32:24;4.10;;;2.60;;
41546;SDS011;27271;45.412;10.852;2022-10-23T16:35:46;6.82;;;2.40;;
41546;SDS011;27271;45.412;10.852;2022-10-23T16:39:13;4.55;;;3.25;;
41546;SDS011;27271;45.412;10.852;2022-10-23T16:42:55;3.92;;;2.72;;
41546;SDS011;27271;45.412;10.852;2022-10-23T16:46:29;9.13;;;5.05;;
41546;SDS011;27271;45.412;10.852;2022-10-23T16:49:51;8.15;;;3.28;;
41546;SDS011;27271;45.412;10.852;2022-10-23T16:53:13;5.07;;;2.90;;
41546;SDS011;27271;45.412;10.852;2022-10-23T16:56:35;8.43;;;3.72;;
41546;SDS011;27271;45.412;10.852;2022-10-23T16:59:57;6.20;;;3.38;;
41546;SDS011;27271;45.412;10.852;2022-10-23T17:03:19;4.68;;;3.10;;
41546;SDS011;27271;45.412;10.852;2022-10-23T17:06:41;5.82;;;3.97;;
41546;SDS011;27271;45.412;10.852;2022-10-23T17:10:03;6.05;;;3.60;;
41546;SDS011;27271;45.412;10.852;2022-10-23T17:13:26;7.57;;;4.70;;
41546;SDS011;27271;45.412;10.852;2022-10-23T17:16:49;9.80;;;4.22;;
41546;SDS011;27271;45.412;10.852;2022-10-23T17:20:12;6.68;;;4.07;;
41546;SDS011;27271;45.412;10.852;2022-10-23T17:23:34;6.80;;;4.20;;
41546;SDS011;27271;45.412;10.852;2022-10-23T17:26:56;11.23;;;4.05;;
41546;SDS011;27271;45.412;10.852;2022-10-23T17:30:18;7.10;;;3.80;;
41546;SDS011;27271;45.412;10.852;2022-10-23T17:33:40;9.68;;;5.13;;
41546;SDS011;27271;45.412;10.852;2022-10-23T17:37:04;6.63;;;4.07;;
41546;SDS011;27271;45.412;10.852;2022-10-23T17:40:26;6.43;;;3.55;;
41546;SDS011;27271;45.412;10.852;2022-10-23T17:43:54;6.80;;;3.88;;
41546;SDS011;27271;45.412;10.852;2022-10-23T17:47:18;8.23;;;4.18;;
41546;SDS011;27271;45.412;10.852;2022-10-23T17:50:40;7.28;;;4.00;;
41546;SDS011;27271;45.412;10.852;2022-10-23T17:54:05;9.70;;;4.78;;
41546;SDS011;27271;45.412;10.852;2022-10-23T17:57:30;7.50;;;3.90;;
41546;SDS011;27271;45.412;10.852;2022-10-23T18:00:52;5.90;;;3.92;;
41546;SDS011;27271;45.412;10.852;2022-10-23T18:04:14;7.57;;;4.18;;
41546;SDS011;27271;45.412;10.852;2022-10-23T18:07:38;8.68;;;4.55;;
41546;SDS011;27271;45.412;10.852;2022-10-23T18:11:00;10.13;;;4.72;;
41546;SDS011;27271;45.412;10.852;2022-10-23T18:14:24;7.50;;;4.20;;
41546;SDS011;27271;45.412;10.852;2022-10-23T18:17:49;6.50;;;4.20;;
41546;SDS011;27271;45.412;10.852;2022-10-23T18:21:12;7.80;;;4.43;;
41546;SDS011;27271;45.412;10.852;2022-10-23T18:24:34;7.55;;;4.57;;
41546;SDS011;27271;45.412;10.852;2022-10-23T18:27:58;6.97;;;4.43;;
41546;SDS011;27271;45.412;10.852;2022-10-23T18:31:23;7.93;;;4.78;;
41546;SDS011;27271;45.412;10.852;2022-10-23T18:34:47;12.05;;;4.95;;
41546;SDS011;27271;45.412;10.852;2022-10-23T18:38:10;8.60;;;4.32;;
41546;SDS011;27271;45.412;10.852;2022-10-23T18:41:34;11.48;;;4.80;;
41546;SDS011;27271;45.412;10.852;2022-10-23T18:44:57;7.57;;;4.07;;
41546;SDS011;27271;45.412;10.852;2022-10-23T18:48:19;6.65;;;4.50;;
41546;SDS011;27271;45.412;10.852;2022-10-23T18:51:41;8.98;;;5.10;;
41546;SDS011;27271;45.412;10.852;2022-10-23T18:55:04;9.70;;;5.03;;
41546;SDS011;27271;45.412;10.852;2022-10-23T18:58:27;7.57;;;5.30;;
41546;SDS011;27271;45.412;10.852;2022-10-23T19:01:49;15.63;;;6.15;;
41546;SDS011;27271;45.412;10.852;2022-10-23T19:05:12;8.73;;;4.85;;
41546;SDS011;27271;45.412;10.852;2022-10-23T19:08:38;11.10;;;5.40;;
41546;SDS011;27271;45.412;10.852;2022-10-23T19:12:01;14.73;;;5.70;;
41546;SDS011;27271;45.412;10.852;2022-10-23T19:15:26;10.88;;;5.38;;
41546;SDS011;27271;45.412;10.852;2022-10-23T19:18:58;12.13;;;5.32;;
41546;SDS011;27271;45.412;10.852;2022-10-23T19:22:30;12.23;;;5.70;;
41546;SDS011;27271;45.412;10.852;2022-10-23T19:25:55;9.48;;;5.30;;
41546;SDS011;27271;45.412;10.852;2022-10-23T19:29:18;9.77;;;5.18;;
41546;SDS011;27271;45.412;10.852;2022-10-23T19:32:42;9.13;;;5.70;;
41546;SDS011;27271;45.412;10.852;2022-10-23T19:36:05;9.07;;;5.65;;
41546;SDS011;27271;45.412;10.852;2022-10-23T19:39:34;12.50;;;6.32;;
41546;SDS011;27271;45.412;10.852;2022-10-23T19:42:56;15.35;;;5.75;;
41546;SDS011;27271;45.412;10.852;2022-10-23T19:46:18;8.90;;;5.13;;
41546;SDS011;27271;45.412;10.852;2022-10-23T19:49:40;10.73;;;6.22;;
41546;SDS011;27271;45.412;10.852;2022-10-23T19:53:03;12.05;;;5.72;;
41546;SDS011;27271;45.412;10.852;2022-10-23T19:56:25;10.35;;;5.93;;
41546;SDS011;27271;45.412;10.852;2022-10-23T19:59:48;11.40;;;5.53;;
41546;SDS011;27271;45.412;10.852;2022-10-23T20:03:11;12.52;;;5.88;;
41546;SDS011;27271;45.412;10.852;2022-10-23T20:06:34;12.63;;;6.53;;
41546;SDS011;27271;45.412;10.852;2022-10-23T20:09:57;14.35;;;6.57;;
41546;SDS011;27271;45.412;10.852;2022-10-23T20:13:19;13.23;;;6.80;;
41546;SDS011;27271;45.412;10.852;2022-10-23T20:16:42;15.13;;;6.97;;
41546;SDS011;27271;45.412;10.852;2022-10-23T20:20:06;12.40;;;6.85;;
41546;SDS011;27271;45.412;10.852;2022-10-23T20:23:28;15.88;;;6.63;;
41546;SDS011;27271;45.412;10.852;2022-10-23T20:26:51;12.63;;;6.70;;
41546;SDS011;27271;45.412;10.852;2022-10-23T20:30:15;16.10;;;6.60;;
41546;SDS011;27271;45.412;10.852;2022-10-23T20:33:37;12.52;;;6.78;;
41546;SDS011;27271;45.412;10.852;2022-10-23T20:37:01;12.23;;;6.53;;
41546;SDS011;27271;45.412;10.852;2022-10-23T20:40:23;10.48;;;6.50;;
41546;SDS011;27271;45.412;10.852;2022-10-23T20:43:50;11.05;;;6.07;;
41546;SDS011;27271;45.412;10.852;2022-10-23T20:47:22;11.73;;;6.78;;
41546;SDS011;27271;45.412;10.852;2022-10-23T20:51:05;13.82;;;6.82;;
41546;SDS011;27271;45.412;10.852;2022-10-23T20:54:47;14.02;;;6.07;;
41546;SDS011;27271;45.412;10.852;2022-10-23T20:58:10;11.02;;;6.28;;
41546;SDS011;27271;45.412;10.852;2022-10-23T21:01:32;11.50;;;6.60;;
41546;SDS011;27271;45.412;10.852;2022-10-23T21:04:55;11.85;;;6.15;;
41546;SDS011;27271;45.412;10.852;2022-10-23T21:08:17;11.65;;;6.32;;
41546;SDS011;27271;45.412;10.852;2022-10-23T21:11:40;10.73;;;5.43;;
41546;SDS011;27271;45.412;10.852;2022-10-23T21:15:02;13.27;;;6.22;;
41546;SDS011;27271;45.412;10.852;2022-10-23T21:18:24;9.13;;;5.47;;
41546;SDS011;27271;45.412;10.852;2022-10-23T21:22:06;15.35;;;6.55;;
41546;SDS011;27271;45.412;10.852;2022-10-23T21:25:28;12.55;;;5.97;;
41546;SDS011;27271;45.412;10.852;2022-10-23T21:28:51;12.18;;;6.53;;
41546;SDS011;27271;45.412;10.852;2022-10-23T21:32:27;11.85;;;6.07;;
41546;SDS011;27271;45.412;10.852;2022-10-23T21:35:49;13.13;;;6.28;;
41546;SDS011;27271;45.412;10.852;2022-10-23T21:39:25;10.65;;;6.05;;
41546;SDS011;27271;45.412;10.852;2022-10-23T21:42:49;13.23;;;7.65;;
41546;SDS011;27271;45.412;10.852;2022-10-23T21:46:17;12.55;;;6.70;;
41546;SDS011;27271;45.412;10.852;2022-10-23T21:50:26;13.32;;;6.80;;
41546;SDS011;27271;45.412;10.852;2022-10-23T21:54:01;12.20;;;6.82;;
41546;SDS011;27271;45.412;10.852;2022-10-23T21:57:29;10.73;;;6.55;;
41546;SDS011;27271;45.412;10.852;2022-10-23T22:00:52;12.63;;;5.95;;
41546;SDS011;27271;45.412;10.852;2022-10-23T22:04:15;11.10;;;6.07;;
41546;SDS011;27271;45.412;10.852;2022-10-23T22:07:38;15.70;;;6.15;;
41546;SDS011;27271;45.412;10.852;2022-10-23T22:11:03;15.50;;;7.20;;
41546;SDS011;27271;45.412;10.852;2022-10-23T22:14:25;13.43;;;6.85;;
41546;SDS011;27271;45.412;10.852;2022-10-23T22:17:48;13.10;;;6.45;;
41546;SDS011;27271;45.412;10.852;2022-10-23T22:21:11;11.07;;;6.55;;
41546;SDS011;27271;45.412;10.852;2022-10-23T22:24:36;16.17;;;6.75;;
41546;SDS011;27271;45.412;10.852;2022-10-23T22:27:58;11.25;;;5.80;;
41546;SDS011;27271;45.412;10.852;2022-10-23T22:31:22;11.23;;;5.97;;